sensor_id;sensor_type;location;lat;lon;timestamp;temperature;humidity
59977;DHT22;45837;51.076;3.578;2023-06-24T00:01:24;22.90;52.90
59977;DHT22;45837;51.076;3.578;2023-06-24T00:03:50;22.80;52.50
59977;DHT22;45837;51.076;3.578;2023-06-24T00:06:21;22.80;52.90
59977;DHT22;45837;51.076;3.578;2023-06-24T00:08:48;22.80;52.60
59977;DHT22;45837;51.076;3.578;2023-06-24T00:11:14;22.80;53.20
59977;DHT22;45837;51.076;3.578;2023-06-24T00:13:40;22.80;53.30
59977;DHT22;45837;51.076;3.578;2023-06-24T00:16:06;22.80;53.30
59977;DHT22;45837;51.076;3.578;2023-06-24T00:18:35;22.70;53.30
59977;DHT22;45837;51.076;3.578;2023-06-24T00:21:01;22.70;53.30
59977;DHT22;45837;51.076;3.578;2023-06-24T00:23:28;22.70;53.30
59977;DHT22;45837;51.076;3.578;2023-06-24T00:25:54;22.70;53.20
59977;DHT22;45837;51.076;3.578;2023-06-24T00:28:20;22.60;53.00
59977;DHT22;45837;51.076;3.578;2023-06-24T00:30:46;22.60;53.10
59977;DHT22;45837;51.076;3.578;2023-06-24T00:33:12;22.60;53.00
59977;DHT22;45837;51.076;3.578;2023-06-24T00:35:42;22.60;53.10
59977;DHT22;45837;51.076;3.578;2023-06-24T00:38:08;22.50;52.80
59977;DHT22;45837;51.076;3.578;2023-06-24T00:40:34;22.50;53.40
59977;DHT22;45837;51.076;3.578;2023-06-24T00:43:00;22.50;53.00
59977;DHT22;45837;51.076;3.578;2023-06-24T00:45:27;22.50;53.20
59977;DHT22;45837;51.076;3.578;2023-06-24T00:47:53;22.40;53.00
59977;DHT22;45837;51.076;3.578;2023-06-24T00:50:21;22.40;53.00
59977;DHT22;45837;51.076;3.578;2023-06-24T00:52:47;22.30;53.10
59977;DHT22;45837;51.076;3.578;2023-06-24T00:55:14;22.30;53.20
59977;DHT22;45837;51.076;3.578;2023-06-24T00:57:43;22.30;53.10
59977;DHT22;45837;51.076;3.578;2023-06-24T01:00:09;22.30;53.30
59977;DHT22;45837;51.076;3.578;2023-06-24T01:02:40;22.30;53.70
59977;DHT22;45837;51.076;3.578;2023-06-24T01:05:08;22.30;53.60
59977;DHT22;45837;51.076;3.578;2023-06-24T01:07:34;22.20;53.80
59977;DHT22;45837;51.076;3.578;2023-06-24T01:10:02;22.20;53.90
59977;DHT22;45837;51.076;3.578;2023-06-24T01:12:35;22.30;53.80
59977;DHT22;45837;51.076;3.578;2023-06-24T01:15:01;22.10;53.50
59977;DHT22;45837;51.076;3.578;2023-06-24T01:17:31;22.10;53.70
59977;DHT22;45837;51.076;3.578;2023-06-24T01:20:02;22.10;53.70
59977;DHT22;45837;51.076;3.578;2023-06-24T01:29:57;21.90;54.80
59977;DHT22;45837;51.076;3.578;2023-06-24T01:32:32;22.00;54.00
59977;DHT22;45837;51.076;3.578;2023-06-24T01:35:02;21.90;53.90
59977;DHT22;45837;51.076;3.578;2023-06-24T01:42:35;21.90;54.60
59977;DHT22;45837;51.076;3.578;2023-06-24T01:45:02;21.80;54.20
59977;DHT22;45837;51.076;3.578;2023-06-24T01:47:28;21.80;54.20
59977;DHT22;45837;51.076;3.578;2023-06-24T01:49:56;21.70;54.30
59977;DHT22;45837;51.076;3.578;2023-06-24T01:52:23;21.80;54.50
59977;DHT22;45837;51.076;3.578;2023-06-24T01:54:49;21.70;54.60
59977;DHT22;45837;51.076;3.578;2023-06-24T01:57:15;21.70;54.50
59977;DHT22;45837;51.076;3.578;2023-06-24T01:59:42;21.60;54.40
59977;DHT22;45837;51.076;3.578;2023-06-24T02:02:10;21.60;54.60
59977;DHT22;45837;51.076;3.578;2023-06-24T02:04:37;21.60;54.80
59977;DHT22;45837;51.076;3.578;2023-06-24T02:07:03;21.60;55.20
59977;DHT22;45837;51.076;3.578;2023-06-24T02:09:29;21.60;55.00
59977;DHT22;45837;51.076;3.578;2023-06-24T02:12:00;21.60;55.00
59977;DHT22;45837;51.076;3.578;2023-06-24T02:14:26;21.60;55.00
59977;DHT22;45837;51.076;3.578;2023-06-24T02:16:53;21.60;55.20
59977;DHT22;45837;51.076;3.578;2023-06-24T02:19:27;21.50;55.20
59977;DHT22;45837;51.076;3.578;2023-06-24T02:21:56;21.50;55.20
59977;DHT22;45837;51.076;3.578;2023-06-24T02:24:22;21.70;55.30
59977;DHT22;45837;51.076;3.578;2023-06-24T02:26:48;21.60;55.50
59977;DHT22;45837;51.076;3.578;2023-06-24T02:29:15;21.70;55.20
59977;DHT22;45837;51.076;3.578;2023-06-24T02:31:41;21.80;55.60
59977;DHT22;45837;51.076;3.578;2023-06-24T02:34:06;21.70;55.50
59977;DHT22;45837;51.076;3.578;2023-06-24T02:36:32;21.80;56.00
59977;DHT22;45837;51.076;3.578;2023-06-24T02:38:58;21.70;55.30
59977;DHT22;45837;51.076;3.578;2023-06-24T02:41:23;21.70;55.50
59977;DHT22;45837;51.076;3.578;2023-06-24T02:43:49;21.70;55.90
59977;DHT22;45837;51.076;3.578;2023-06-24T02:46:15;21.70;55.70
59977;DHT22;45837;51.076;3.578;2023-06-24T02:48:41;21.60;55.40
59977;DHT22;45837;51.076;3.578;2023-06-24T02:51:08;21.60;55.50
59977;DHT22;45837;51.076;3.578;2023-06-24T02:53:38;21.60;55.20
59977;DHT22;45837;51.076;3.578;2023-06-24T02:56:05;21.70;55.30
59977;DHT22;45837;51.076;3.578;2023-06-24T02:58:32;21.50;55.30
59977;DHT22;45837;51.076;3.578;2023-06-24T03:01:07;21.50;55.60
59977;DHT22;45837;51.076;3.578;2023-06-24T03:03:54;21.50;56.20
59977;DHT22;45837;51.076;3.578;2023-06-24T03:06:20;21.60;55.40
59977;DHT22;45837;51.076;3.578;2023-06-24T03:08:48;21.50;55.60
59977;DHT22;45837;51.076;3.578;2023-06-24T03:11:15;21.50;55.90
59977;DHT22;45837;51.076;3.578;2023-06-24T03:13:42;21.50;55.50
59977;DHT22;45837;51.076;3.578;2023-06-24T03:16:13;21.50;56.00
59977;DHT22;45837;51.076;3.578;2023-06-24T03:18:52;21.50;56.10
59977;DHT22;45837;51.076;3.578;2023-06-24T03:21:19;21.50;56.60
59977;DHT22;45837;51.076;3.578;2023-06-24T03:23:45;21.50;56.50
59977;DHT22;45837;51.076;3.578;2023-06-24T03:26:13;21.50;56.50
59977;DHT22;45837;51.076;3.578;2023-06-24T03:28:40;21.40;56.40
59977;DHT22;45837;51.076;3.578;2023-06-24T03:31:10;21.50;56.50
59977;DHT22;45837;51.076;3.578;2023-06-24T03:33:37;21.50;56.40
59977;DHT22;45837;51.076;3.578;2023-06-24T03:36:04;21.40;56.60
59977;DHT22;45837;51.076;3.578;2023-06-24T03:38:33;21.40;56.50
59977;DHT22;45837;51.076;3.578;2023-06-24T03:40:58;21.40;56.50
59977;DHT22;45837;51.076;3.578;2023-06-24T03:43:24;21.50;56.50
59977;DHT22;45837;51.076;3.578;2023-06-24T03:45:50;21.50;57.60
59977;DHT22;45837;51.076;3.578;2023-06-24T03:48:17;21.50;56.70
59977;DHT22;45837;51.076;3.578;2023-06-24T03:50:42;21.50;56.40
59977;DHT22;45837;51.076;3.578;2023-06-24T03:53:08;21.40;54.90
59977;DHT22;45837;51.076;3.578;2023-06-24T03:55:35;21.50;56.60
59977;DHT22;45837;51.076;3.578;2023-06-24T03:58:00;21.50;56.10
59977;DHT22;45837;51.076;3.578;2023-06-24T04:00:26;21.40;54.90
59977;DHT22;45837;51.076;3.578;2023-06-24T04:02:52;21.50;56.60
59977;DHT22;45837;51.076;3.578;2023-06-24T04:05:19;21.50;56.10
59977;DHT22;45837;51.076;3.578;2023-06-24T04:07:45;21.50;55.00
59977;DHT22;45837;51.076;3.578;2023-06-24T04:10:16;21.50;55.80
59977;DHT22;45837;51.076;3.578;2023-06-24T04:12:44;21.50;56.30
59977;DHT22;45837;51.076;3.578;2023-06-24T04:15:09;21.50;55.70
59977;DHT22;45837;51.076;3.578;2023-06-24T04:17:35;21.60;55.90
59977;DHT22;45837;51.076;3.578;2023-06-24T04:20:01;21.70;56.30
59977;DHT22;45837;51.076;3.578;2023-06-24T04:22:30;21.70;55.60
59977;DHT22;45837;51.076;3.578;2023-06-24T04:24:58;21.80;56.10
59977;DHT22;45837;51.076;3.578;2023-06-24T04:27:23;21.80;55.80
59977;DHT22;45837;51.076;3.578;2023-06-24T04:29:49;21.90;55.80
59977;DHT22;45837;51.076;3.578;2023-06-24T04:32:15;22.00;55.50
59977;DHT22;45837;51.076;3.578;2023-06-24T04:34:41;22.10;55.10
59977;DHT22;45837;51.076;3.578;2023-06-24T04:37:06;22.20;56.00
59977;DHT22;45837;51.076;3.578;2023-06-24T04:39:32;22.20;54.10
59977;DHT22;45837;51.076;3.578;2023-06-24T04:41:58;22.30;55.10
59977;DHT22;45837;51.076;3.578;2023-06-24T04:44:24;22.40;55.30
59977;DHT22;45837;51.076;3.578;2023-06-24T04:46:49;22.40;54.90
59977;DHT22;45837;51.076;3.578;2023-06-24T04:49:17;22.50;54.90
59977;DHT22;45837;51.076;3.578;2023-06-24T04:51:43;22.50;54.60
59977;DHT22;45837;51.076;3.578;2023-06-24T04:54:08;22.60;54.40
59977;DHT22;45837;51.076;3.578;2023-06-24T04:56:34;22.70;54.70
59977;DHT22;45837;51.076;3.578;2023-06-24T04:59:00;22.70;54.50
59977;DHT22;45837;51.076;3.578;2023-06-24T05:01:26;22.70;54.20
59977;DHT22;45837;51.076;3.578;2023-06-24T05:03:52;22.80;55.20
59977;DHT22;45837;51.076;3.578;2023-06-24T05:06:17;22.70;54.60
59977;DHT22;45837;51.076;3.578;2023-06-24T05:08:43;22.80;54.70
59977;DHT22;45837;51.076;3.578;2023-06-24T05:11:09;22.80;55.10
59977;DHT22;45837;51.076;3.578;2023-06-24T05:13:34;22.70;55.10
59977;DHT22;45837;51.076;3.578;2023-06-24T05:16:00;22.70;55.20
59977;DHT22;45837;51.076;3.578;2023-06-24T05:18:26;22.70;55.50
59977;DHT22;45837;51.076;3.578;2023-06-24T05:20:51;22.60;55.50
59977;DHT22;45837;51.076;3.578;2023-06-24T05:23:17;22.60;55.40
59977;DHT22;45837;51.076;3.578;2023-06-24T05:25:43;22.60;55.50
59977;DHT22;45837;51.076;3.578;2023-06-24T05:28:09;22.60;55.90
59977;DHT22;45837;51.076;3.578;2023-06-24T05:30:34;22.70;55.80
59977;DHT22;45837;51.076;3.578;2023-06-24T05:33:00;22.70;55.70
59977;DHT22;45837;51.076;3.578;2023-06-24T05:35:26;22.80;55.80
59977;DHT22;45837;51.076;3.578;2023-06-24T05:37:52;22.80;55.60
59977;DHT22;45837;51.076;3.578;2023-06-24T05:40:17;22.90;56.10
59977;DHT22;45837;51.076;3.578;2023-06-24T05:42:43;22.90;55.70
59977;DHT22;45837;51.076;3.578;2023-06-24T05:45:08;23.00;56.00
59977;DHT22;45837;51.076;3.578;2023-06-24T05:47:34;23.00;55.40
59977;DHT22;45837;51.076;3.578;2023-06-24T05:50:00;23.10;56.00
59977;DHT22;45837;51.076;3.578;2023-06-24T05:52:26;23.10;56.10
59977;DHT22;45837;51.076;3.578;2023-06-24T05:54:54;23.20;55.70
59977;DHT22;45837;51.076;3.578;2023-06-24T05:57:20;23.20;55.70
59977;DHT22;45837;51.076;3.578;2023-06-24T05:59:45;23.30;55.50
59977;DHT22;45837;51.076;3.578;2023-06-24T06:02:11;23.30;55.20
59977;DHT22;45837;51.076;3.578;2023-06-24T06:04:38;23.30;55.10
59977;DHT22;45837;51.076;3.578;2023-06-24T06:07:03;23.30;54.80
59977;DHT22;45837;51.076;3.578;2023-06-24T06:09:29;23.40;55.20
59977;DHT22;45837;51.076;3.578;2023-06-24T06:11:55;23.40;55.30
59977;DHT22;45837;51.076;3.578;2023-06-24T06:14:20;23.40;55.40
59977;DHT22;45837;51.076;3.578;2023-06-24T06:16:46;23.40;55.80
59977;DHT22;45837;51.076;3.578;2023-06-24T06:19:12;23.40;55.90
59977;DHT22;45837;51.076;3.578;2023-06-24T06:21:38;23.40;55.70
59977;DHT22;45837;51.076;3.578;2023-06-24T06:24:04;23.50;55.10
59977;DHT22;45837;51.076;3.578;2023-06-24T06:26:29;23.50;55.40
59977;DHT22;45837;51.076;3.578;2023-06-24T06:28:55;23.50;56.40
59977;DHT22;45837;51.076;3.578;2023-06-24T06:31:21;23.50;56.50
59977;DHT22;45837;51.076;3.578;2023-06-24T06:33:46;23.50;56.10
59977;DHT22;45837;51.076;3.578;2023-06-24T06:36:13;23.50;56.20
59977;DHT22;45837;51.076;3.578;2023-06-24T06:38:40;23.50;56.30
59977;DHT22;45837;51.076;3.578;2023-06-24T06:41:06;23.50;55.90
59977;DHT22;45837;51.076;3.578;2023-06-24T06:43:32;23.50;56.60
59977;DHT22;45837;51.076;3.578;2023-06-24T06:45:57;23.50;56.00
59977;DHT22;45837;51.076;3.578;2023-06-24T06:48:23;23.50;56.30
59977;DHT22;45837;51.076;3.578;2023-06-24T06:50:49;23.50;56.40
59977;DHT22;45837;51.076;3.578;2023-06-24T06:53:15;23.50;56.20
59977;DHT22;45837;51.076;3.578;2023-06-24T06:55:40;23.50;56.50
59977;DHT22;45837;51.076;3.578;2023-06-24T06:58:08;23.60;55.90
59977;DHT22;45837;51.076;3.578;2023-06-24T07:00:33;23.60;56.50
59977;DHT22;45837;51.076;3.578;2023-06-24T07:02:59;23.50;56.00
59977;DHT22;45837;51.076;3.578;2023-06-24T07:05:25;23.50;56.40
59977;DHT22;45837;51.076;3.578;2023-06-24T07:07:50;23.80;56.30
59977;DHT22;45837;51.076;3.578;2023-06-24T07:10:16;23.60;55.90
59977;DHT22;45837;51.076;3.578;2023-06-24T07:12:45;23.50;55.60
59977;DHT22;45837;51.076;3.578;2023-06-24T07:15:11;23.60;55.70
59977;DHT22;45837;51.076;3.578;2023-06-24T07:17:36;23.60;56.40
59977;DHT22;45837;51.076;3.578;2023-06-24T07:20:02;23.60;56.50
59977;DHT22;45837;51.076;3.578;2023-06-24T07:22:28;23.50;56.30
59977;DHT22;45837;51.076;3.578;2023-06-24T07:24:56;23.50;56.10
59977;DHT22;45837;51.076;3.578;2023-06-24T07:27:22;23.60;55.60
59977;DHT22;45837;51.076;3.578;2023-06-24T07:29:47;23.50;56.30
59977;DHT22;45837;51.076;3.578;2023-06-24T07:32:13;23.60;56.10
59977;DHT22;45837;51.076;3.578;2023-06-24T07:34:39;23.60;55.90
59977;DHT22;45837;51.076;3.578;2023-06-24T07:37:04;23.60;55.80
59977;DHT22;45837;51.076;3.578;2023-06-24T07:39:30;23.60;56.00
59977;DHT22;45837;51.076;3.578;2023-06-24T07:41:56;23.60;56.00
59977;DHT22;45837;51.076;3.578;2023-06-24T07:44:21;23.60;55.90
59977;DHT22;45837;51.076;3.578;2023-06-24T07:46:47;23.60;55.90
59977;DHT22;45837;51.076;3.578;2023-06-24T07:49:14;23.60;55.80
59977;DHT22;45837;51.076;3.578;2023-06-24T07:51:39;23.60;56.10
59977;DHT22;45837;51.076;3.578;2023-06-24T07:54:05;23.60;56.20
59977;DHT22;45837;51.076;3.578;2023-06-24T07:56:31;23.60;56.10
59977;DHT22;45837;51.076;3.578;2023-06-24T07:58:56;23.60;56.10
59977;DHT22;45837;51.076;3.578;2023-06-24T08:01:22;23.60;56.10
59977;DHT22;45837;51.076;3.578;2023-06-24T08:03:47;23.60;56.20
59977;DHT22;45837;51.076;3.578;2023-06-24T08:06:13;23.60;55.80
59977;DHT22;45837;51.076;3.578;2023-06-24T08:08:39;23.60;56.60
59977;DHT22;45837;51.076;3.578;2023-06-24T08:11:04;23.60;55.90
59977;DHT22;45837;51.076;3.578;2023-06-24T08:13:30;23.60;56.00
59977;DHT22;45837;51.076;3.578;2023-06-24T08:15:56;23.70;55.80
59977;DHT22;45837;51.076;3.578;2023-06-24T08:18:22;23.60;55.70
59977;DHT22;45837;51.076;3.578;2023-06-24T08:20:48;23.70;55.80
59977;DHT22;45837;51.076;3.578;2023-06-24T08:23:13;23.60;55.70
59977;DHT22;45837;51.076;3.578;2023-06-24T08:25:39;23.60;55.90
59977;DHT22;45837;51.076;3.578;2023-06-24T08:28:05;23.60;56.80
59977;DHT22;45837;51.076;3.578;2023-06-24T08:30:30;23.70;55.70
59977;DHT22;45837;51.076;3.578;2023-06-24T08:32:57;23.70;55.60
59977;DHT22;45837;51.076;3.578;2023-06-24T08:35:23;23.70;55.70
59977;DHT22;45837;51.076;3.578;2023-06-24T08:37:48;23.70;56.10
59977;DHT22;45837;51.076;3.578;2023-06-24T08:40:14;23.70;55.70
59977;DHT22;45837;51.076;3.578;2023-06-24T08:42:39;23.70;55.80
59977;DHT22;45837;51.076;3.578;2023-06-24T08:45:05;23.70;55.70
59977;DHT22;45837;51.076;3.578;2023-06-24T08:47:31;23.70;55.40
59977;DHT22;45837;51.076;3.578;2023-06-24T08:50:08;23.70;55.30
59977;DHT22;45837;51.076;3.578;2023-06-24T08:52:36;23.70;55.40
59977;DHT22;45837;51.076;3.578;2023-06-24T08:55:04;23.70;55.40
59977;DHT22;45837;51.076;3.578;2023-06-24T08:57:31;23.70;56.00
59977;DHT22;45837;51.076;3.578;2023-06-24T08:59:57;23.70;55.80
59977;DHT22;45837;51.076;3.578;2023-06-24T09:02:23;23.70;55.80
59977;DHT22;45837;51.076;3.578;2023-06-24T09:04:50;23.70;55.90
59977;DHT22;45837;51.076;3.578;2023-06-24T09:07:26;23.70;55.40
59977;DHT22;45837;51.076;3.578;2023-06-24T09:09:52;23.70;55.40
59977;DHT22;45837;51.076;3.578;2023-06-24T09:12:18;23.70;56.10
59977;DHT22;45837;51.076;3.578;2023-06-24T09:14:47;23.70;55.70
59977;DHT22;45837;51.076;3.578;2023-06-24T09:17:13;23.70;55.40
59977;DHT22;45837;51.076;3.578;2023-06-24T09:19:39;23.70;55.80
59977;DHT22;45837;51.076;3.578;2023-06-24T09:22:06;23.70;55.40
59977;DHT22;45837;51.076;3.578;2023-06-24T09:24:33;23.70;55.30
59977;DHT22;45837;51.076;3.578;2023-06-24T09:26:59;23.70;55.30
59977;DHT22;45837;51.076;3.578;2023-06-24T09:29:25;23.80;55.50
59977;DHT22;45837;51.076;3.578;2023-06-24T09:31:51;23.80;55.40
59977;DHT22;45837;51.076;3.578;2023-06-24T09:34:22;23.70;55.30
59977;DHT22;45837;51.076;3.578;2023-06-24T09:36:55;23.70;55.30
59977;DHT22;45837;51.076;3.578;2023-06-24T09:39:21;23.80;55.20
59977;DHT22;45837;51.076;3.578;2023-06-24T09:41:50;23.80;55.40
59977;DHT22;45837;51.076;3.578;2023-06-24T09:44:16;23.80;55.20
59977;DHT22;45837;51.076;3.578;2023-06-24T09:46:44;23.80;55.30
59977;DHT22;45837;51.076;3.578;2023-06-24T09:49:10;23.80;55.60
59977;DHT22;45837;51.076;3.578;2023-06-24T09:51:39;23.80;55.70
59977;DHT22;45837;51.076;3.578;2023-06-24T09:54:08;23.80;55.20
59977;DHT22;45837;51.076;3.578;2023-06-24T09:56:39;23.80;55.10
59977;DHT22;45837;51.076;3.578;2023-06-24T09:59:06;23.80;55.30
59977;DHT22;45837;51.076;3.578;2023-06-24T10:01:32;23.80;55.20
59977;DHT22;45837;51.076;3.578;2023-06-24T10:03:58;23.80;55.20
59977;DHT22;45837;51.076;3.578;2023-06-24T10:06:24;23.80;55.20
59977;DHT22;45837;51.076;3.578;2023-06-24T10:08:51;23.80;55.10
59977;DHT22;45837;51.076;3.578;2023-06-24T10:11:16;23.80;55.30
59977;DHT22;45837;51.076;3.578;2023-06-24T10:13:42;23.90;55.90
59977;DHT22;45837;51.076;3.578;2023-06-24T10:16:08;23.80;55.70
59977;DHT22;45837;51.076;3.578;2023-06-24T10:18:37;23.80;55.70
59977;DHT22;45837;51.076;3.578;2023-06-24T10:21:04;23.80;55.00
59977;DHT22;45837;51.076;3.578;2023-06-24T10:23:31;23.90;55.10
59977;DHT22;45837;51.076;3.578;2023-06-24T10:25:57;23.90;55.10
59977;DHT22;45837;51.076;3.578;2023-06-24T10:28:22;23.80;55.80
59977;DHT22;45837;51.076;3.578;2023-06-24T10:30:53;23.80;55.30
59977;DHT22;45837;51.076;3.578;2023-06-24T10:33:19;23.80;54.90
59977;DHT22;45837;51.076;3.578;2023-06-24T10:35:45;23.90;55.40
59977;DHT22;45837;51.076;3.578;2023-06-24T10:38:11;23.90;55.70
59977;DHT22;45837;51.076;3.578;2023-06-24T10:40:37;23.90;55.40
59977;DHT22;45837;51.076;3.578;2023-06-24T10:43:25;23.90;55.00
59977;DHT22;45837;51.076;3.578;2023-06-24T10:45:50;23.90;55.00
59977;DHT22;45837;51.076;3.578;2023-06-24T10:48:16;23.90;55.00
59977;DHT22;45837;51.076;3.578;2023-06-24T10:50:45;23.90;55.00
59977;DHT22;45837;51.076;3.578;2023-06-24T10:53:10;23.90;55.50
59977;DHT22;45837;51.076;3.578;2023-06-24T10:55:37;23.90;55.00
59977;DHT22;45837;51.076;3.578;2023-06-24T10:58:06;23.90;55.30
59977;DHT22;45837;51.076;3.578;2023-06-24T11:00:32;23.90;54.80
59977;DHT22;45837;51.076;3.578;2023-06-24T11:03:07;23.90;55.30
59977;DHT22;45837;51.076;3.578;2023-06-24T11:05:32;23.90;54.90
59977;DHT22;45837;51.076;3.578;2023-06-24T11:07:58;23.90;55.30
59977;DHT22;45837;51.076;3.578;2023-06-24T11:10:24;23.90;55.30
59977;DHT22;45837;51.076;3.578;2023-06-24T11:12:50;23.90;54.90
59977;DHT22;45837;51.076;3.578;2023-06-24T11:15:17;23.90;55.00
59977;DHT22;45837;51.076;3.578;2023-06-24T11:17:44;23.90;55.10
59977;DHT22;45837;51.076;3.578;2023-06-24T11:20:11;23.90;55.20
59977;DHT22;45837;51.076;3.578;2023-06-24T11:22:37;23.90;54.90
59977;DHT22;45837;51.076;3.578;2023-06-24T11:25:03;24.00;55.30
59977;DHT22;45837;51.076;3.578;2023-06-24T11:27:29;23.90;55.10
59977;DHT22;45837;51.076;3.578;2023-06-24T11:29:55;23.90;54.80
59977;DHT22;45837;51.076;3.578;2023-06-24T11:32:23;24.00;55.00
59977;DHT22;45837;51.076;3.578;2023-06-24T11:34:49;24.00;55.00
59977;DHT22;45837;51.076;3.578;2023-06-24T11:37:17;24.00;55.20
59977;DHT22;45837;51.076;3.578;2023-06-24T11:39:43;24.00;55.10
59977;DHT22;45837;51.076;3.578;2023-06-24T11:42:09;24.00;55.00
59977;DHT22;45837;51.076;3.578;2023-06-24T11:44:35;24.00;55.10
59977;DHT22;45837;51.076;3.578;2023-06-24T11:47:07;24.00;54.90
59977;DHT22;45837;51.076;3.578;2023-06-24T11:52:47;24.00;54.80
59977;DHT22;45837;51.076;3.578;2023-06-24T11:55:18;24.00;54.80
59977;DHT22;45837;51.076;3.578;2023-06-24T12:00:14;24.00;54.80
59977;DHT22;45837;51.076;3.578;2023-06-24T12:02:40;24.00;55.10
59977;DHT22;45837;51.076;3.578;2023-06-24T12:05:05;24.00;54.90
59977;DHT22;45837;51.076;3.578;2023-06-24T12:07:31;24.00;55.40
59977;DHT22;45837;51.076;3.578;2023-06-24T12:09:57;24.00;55.70
59977;DHT22;45837;51.076;3.578;2023-06-24T12:12:22;24.00;55.60
59977;DHT22;45837;51.076;3.578;2023-06-24T12:14:48;24.10;55.30
59977;DHT22;45837;51.076;3.578;2023-06-24T12:17:14;24.00;55.10
59977;DHT22;45837;51.076;3.578;2023-06-24T12:19:39;24.00;55.20
59977;DHT22;45837;51.076;3.578;2023-06-24T12:22:05;24.00;55.10
59977;DHT22;45837;51.076;3.578;2023-06-24T12:24:31;24.10;55.10
59977;DHT22;45837;51.076;3.578;2023-06-24T12:26:56;24.00;55.10
59977;DHT22;45837;51.076;3.578;2023-06-24T12:29:22;24.10;55.50
59977;DHT22;45837;51.076;3.578;2023-06-24T12:31:48;24.10;55.10
59977;DHT22;45837;51.076;3.578;2023-06-24T12:34:13;24.10;55.40
59977;DHT22;45837;51.076;3.578;2023-06-24T12:36:39;24.10;55.00
59977;DHT22;45837;51.076;3.578;2023-06-24T12:39:05;24.10;55.30
59977;DHT22;45837;51.076;3.578;2023-06-24T12:41:30;24.10;55.30
59977;DHT22;45837;51.076;3.578;2023-06-24T12:43:56;24.10;54.90
59977;DHT22;45837;51.076;3.578;2023-06-24T12:46:22;24.10;55.70
59977;DHT22;45837;51.076;3.578;2023-06-24T12:48:47;24.10;55.10
59977;DHT22;45837;51.076;3.578;2023-06-24T12:51:13;24.10;55.00
59977;DHT22;45837;51.076;3.578;2023-06-24T12:53:39;24.10;55.10
59977;DHT22;45837;51.076;3.578;2023-06-24T12:56:04;24.10;55.00
59977;DHT22;45837;51.076;3.578;2023-06-24T12:58:30;24.10;55.00
59977;DHT22;45837;51.076;3.578;2023-06-24T13:00:56;24.20;55.30
59977;DHT22;45837;51.076;3.578;2023-06-24T13:03:21;24.20;55.20
59977;DHT22;45837;51.076;3.578;2023-06-24T13:05:47;24.20;54.90
59977;DHT22;45837;51.076;3.578;2023-06-24T13:08:13;24.20;55.10
59977;DHT22;45837;51.076;3.578;2023-06-24T13:10:38;24.20;55.10
59977;DHT22;45837;51.076;3.578;2023-06-24T13:13:04;24.20;55.20
59977;DHT22;45837;51.076;3.578;2023-06-24T13:15:30;24.20;55.20
59977;DHT22;45837;51.076;3.578;2023-06-24T13:17:56;24.20;54.70
59977;DHT22;45837;51.076;3.578;2023-06-24T13:20:22;25.40;56.10
59977;DHT22;45837;51.076;3.578;2023-06-24T13:22:47;24.20;55.00
59977;DHT22;45837;51.076;3.578;2023-06-24T13:25:13;24.20;55.00
59977;DHT22;45837;51.076;3.578;2023-06-24T13:27:39;24.20;55.00
59977;DHT22;45837;51.076;3.578;2023-06-24T13:30:04;24.20;55.30
59977;DHT22;45837;51.076;3.578;2023-06-24T13:32:30;24.20;54.70
59977;DHT22;45837;51.076;3.578;2023-06-24T13:34:56;24.20;55.10
59977;DHT22;45837;51.076;3.578;2023-06-24T13:37:22;24.20;54.90
59977;DHT22;45837;51.076;3.578;2023-06-24T13:39:47;24.20;55.00
59977;DHT22;45837;51.076;3.578;2023-06-24T13:42:13;24.20;55.10
59977;DHT22;45837;51.076;3.578;2023-06-24T13:44:39;24.20;54.90
59977;DHT22;45837;51.076;3.578;2023-06-24T13:47:05;24.20;55.00
59977;DHT22;45837;51.076;3.578;2023-06-24T13:49:30;24.20;54.70
59977;DHT22;45837;51.076;3.578;2023-06-24T13:51:56;24.20;54.80
59977;DHT22;45837;51.076;3.578;2023-06-24T13:54:22;24.30;54.90
59977;DHT22;45837;51.076;3.578;2023-06-24T13:56:47;24.30;54.90
59977;DHT22;45837;51.076;3.578;2023-06-24T13:59:13;24.30;55.00
59977;DHT22;45837;51.076;3.578;2023-06-24T14:01:39;24.30;55.10
59977;DHT22;45837;51.076;3.578;2023-06-24T14:04:04;24.20;55.20
59977;DHT22;45837;51.076;3.578;2023-06-24T14:06:30;24.30;54.70
59977;DHT22;45837;51.076;3.578;2023-06-24T14:08:56;24.30;54.70
59977;DHT22;45837;51.076;3.578;2023-06-24T14:11:22;24.30;54.80
59977;DHT22;45837;51.076;3.578;2023-06-24T14:13:48;24.30;54.80
59977;DHT22;45837;51.076;3.578;2023-06-24T14:16:13;24.30;54.90
59977;DHT22;45837;51.076;3.578;2023-06-24T14:18:39;24.30;54.90
59977;DHT22;45837;51.076;3.578;2023-06-24T14:21:05;24.30;55.00
59977;DHT22;45837;51.076;3.578;2023-06-24T14:23:31;24.30;55.30
59977;DHT22;45837;51.076;3.578;2023-06-24T14:25:57;24.30;54.60
59977;DHT22;45837;51.076;3.578;2023-06-24T14:28:23;24.30;54.30
59977;DHT22;45837;51.076;3.578;2023-06-24T14:30:48;24.30;55.40
59977;DHT22;45837;51.076;3.578;2023-06-24T14:33:14;24.30;54.70
59977;DHT22;45837;51.076;3.578;2023-06-24T14:35:40;24.30;54.70
59977;DHT22;45837;51.076;3.578;2023-06-24T14:38:06;24.30;54.40
59977;DHT22;45837;51.076;3.578;2023-06-24T14:40:32;24.30;55.10
59977;DHT22;45837;51.076;3.578;2023-06-24T14:42:58;24.30;54.30
59977;DHT22;45837;51.076;3.578;2023-06-24T14:45:24;24.30;54.40
59977;DHT22;45837;51.076;3.578;2023-06-24T14:47:49;24.30;54.60
59977;DHT22;45837;51.076;3.578;2023-06-24T14:50:15;24.40;54.40
59977;DHT22;45837;51.076;3.578;2023-06-24T14:52:41;24.40;54.50
59977;DHT22;45837;51.076;3.578;2023-06-24T14:55:07;24.40;54.80
59977;DHT22;45837;51.076;3.578;2023-06-24T14:57:33;24.40;54.30
59977;DHT22;45837;51.076;3.578;2023-06-24T14:59:58;24.40;54.80
59977;DHT22;45837;51.076;3.578;2023-06-24T15:02:24;24.40;54.60
59977;DHT22;45837;51.076;3.578;2023-06-24T15:04:51;24.40;54.80
59977;DHT22;45837;51.076;3.578;2023-06-24T15:07:17;24.40;54.60
59977;DHT22;45837;51.076;3.578;2023-06-24T15:09:43;24.40;54.90
59977;DHT22;45837;51.076;3.578;2023-06-24T15:12:08;24.40;54.90
59977;DHT22;45837;51.076;3.578;2023-06-24T15:14:34;24.40;54.50
59977;DHT22;45837;51.076;3.578;2023-06-24T15:17:00;24.40;54.50
59977;DHT22;45837;51.076;3.578;2023-06-24T15:19:26;24.40;54.60
59977;DHT22;45837;51.076;3.578;2023-06-24T15:21:51;24.40;54.60
59977;DHT22;45837;51.076;3.578;2023-06-24T15:24:17;24.40;54.40
59977;DHT22;45837;51.076;3.578;2023-06-24T15:26:43;24.40;54.70
59977;DHT22;45837;51.076;3.578;2023-06-24T15:29:08;24.40;54.50
59977;DHT22;45837;51.076;3.578;2023-06-24T15:31:34;24.50;54.80
59977;DHT22;45837;51.076;3.578;2023-06-24T15:34:00;24.40;54.90
59977;DHT22;45837;51.076;3.578;2023-06-24T15:36:25;24.40;54.60
59977;DHT22;45837;51.076;3.578;2023-06-24T15:38:53;24.50;54.50
59977;DHT22;45837;51.076;3.578;2023-06-24T15:41:18;24.50;54.50
59977;DHT22;45837;51.076;3.578;2023-06-24T15:43:44;24.50;54.80